sensor_id;sensor_type;location;lat;lon;timestamp;P1;durP1;ratioP1;P2;durP2;ratioP2
16775;SDS011;8505;49.456;8.164;2023-01-31T00:01:29;20.20;;;8.70;;
16775;SDS011;8505;49.456;8.164;2023-01-31T00:03:59;21.23;;;7.93;;
16775;SDS011;8505;49.456;8.164;2023-01-31T00:06:30;22.40;;;8.50;;
16775;SDS011;8505;49.456;8.164;2023-01-31T00:08:59;25.52;;;8.10;;
16775;SDS011;8505;49.456;8.164;2023-01-31T00:11:28;17.92;;;7.72;;
16775;SDS011;8505;49.456;8.164;2023-01-31T00:13:56;19.40;;;7.75;;
16775;SDS011;8505;49.456;8.164;2023-01-31T00:16:25;22.50;;;9.50;;
16775;SDS011;8505;49.456;8.164;2023-01-31T00:18:53;21.83;;;9.10;;
16775;SDS011;8505;49.456;8.164;2023-01-31T00:21:22;20.90;;;7.97;;
16775;SDS011;8505;49.456;8.164;2023-01-31T00:23:51;23.65;;;9.20;;
16775;SDS011;8505;49.456;8.164;2023-01-31T00:26:21;20.92;;;8.48;;
16775;SDS011;8505;49.456;8.164;2023-01-31T00:28:50;21.13;;;8.20;;
16775;SDS011;8505;49.456;8.164;2023-01-31T00:31:20;24.95;;;8.85;;
16775;SDS011;8505;49.456;8.164;2023-01-31T00:33:49;20.67;;;8.38;;
16775;SDS011;8505;49.456;8.164;2023-01-31T00:36:18;20.65;;;8.20;;
16775;SDS011;8505;49.456;8.164;2023-01-31T00:38:48;20.05;;;8.38;;
16775;SDS011;8505;49.456;8.164;2023-01-31T00:41:17;24.02;;;8.85;;
16775;SDS011;8505;49.456;8.164;2023-01-31T00:43:45;21.58;;;8.40;;
16775;SDS011;8505;49.456;8.164;2023-01-31T00:46:12;23.30;;;8.27;;
16775;SDS011;8505;49.456;8.164;2023-01-31T00:48:40;18.52;;;8.10;;
16775;SDS011;8505;49.456;8.164;2023-01-31T00:51:08;21.27;;;8.20;;
16775;SDS011;8505;49.456;8.164;2023-01-31T00:53:35;23.90;;;8.75;;
16775;SDS011;8505;49.456;8.164;2023-01-31T00:56:05;17.23;;;8.60;;
16775;SDS011;8505;49.456;8.164;2023-01-31T00:58:35;21.92;;;8.77;;
16775;SDS011;8505;49.456;8.164;2023-01-31T01:01:05;20.97;;;8.87;;
16775;SDS011;8505;49.456;8.164;2023-01-31T01:03:34;20.30;;;8.95;;
16775;SDS011;8505;49.456;8.164;2023-01-31T01:06:02;23.90;;;8.82;;
16775;SDS011;8505;49.456;8.164;2023-01-31T01:08:30;24.73;;;9.32;;
16775;SDS011;8505;49.456;8.164;2023-01-31T01:11:03;23.65;;;9.20;;
16775;SDS011;8505;49.456;8.164;2023-01-31T01:13:33;23.97;;;9.37;;
16775;SDS011;8505;49.456;8.164;2023-01-31T01:16:03;22.45;;;8.98;;
16775;SDS011;8505;49.456;8.164;2023-01-31T01:18:32;21.88;;;9.23;;
16775;SDS011;8505;49.456;8.164;2023-01-31T01:21:05;23.33;;;9.45;;
16775;SDS011;8505;49.456;8.164;2023-01-31T01:23:37;27.02;;;9.10;;
16775;SDS011;8505;49.456;8.164;2023-01-31T01:26:07;21.05;;;8.55;;
16775;SDS011;8505;49.456;8.164;2023-01-31T01:28:40;21.17;;;9.05;;
16775;SDS011;8505;49.456;8.164;2023-01-31T01:31:08;23.55;;;9.05;;
16775;SDS011;8505;49.456;8.164;2023-01-31T01:33:38;21.33;;;8.67;;
16775;SDS011;8505;49.456;8.164;2023-01-31T01:36:06;22.67;;;9.07;;
16775;SDS011;8505;49.456;8.164;2023-01-31T01:38:37;23.37;;;8.83;;
16775;SDS011;8505;49.456;8.164;2023-01-31T01:41:06;19.93;;;8.80;;
16775;SDS011;8505;49.456;8.164;2023-01-31T01:43:38;19.80;;;8.55;;
16775;SDS011;8505;49.456;8.164;2023-01-31T01:46:07;23.58;;;8.48;;
16775;SDS011;8505;49.456;8.164;2023-01-31T01:48:37;24.38;;;8.80;;
16775;SDS011;8505;49.456;8.164;2023-01-31T01:51:05;22.42;;;8.93;;
16775;SDS011;8505;49.456;8.164;2023-01-31T01:53:35;21.48;;;8.80;;
16775;SDS011;8505;49.456;8.164;2023-01-31T01:56:08;26.65;;;8.73;;
16775;SDS011;8505;49.456;8.164;2023-01-31T01:58:41;22.65;;;8.43;;
16775;SDS011;8505;49.456;8.164;2023-01-31T02:01:12;22.52;;;8.50;;
16775;SDS011;8505;49.456;8.164;2023-01-31T02:03:42;21.55;;;8.25;;
16775;SDS011;8505;49.456;8.164;2023-01-31T02:06:11;21.17;;;8.65;;
16775;SDS011;8505;49.456;8.164;2023-01-31T02:08:39;23.38;;;8.82;;
16775;SDS011;8505;49.456;8.164;2023-01-31T02:11:12;21.25;;;8.18;;
16775;SDS011;8505;49.456;8.164;2023-01-31T02:13:45;26.08;;;8.82;;
16775;SDS011;8505;49.456;8.164;2023-01-31T02:16:15;24.08;;;8.73;;
16775;SDS011;8505;49.456;8.164;2023-01-31T02:18:43;24.50;;;9.02;;
16775;SDS011;8505;49.456;8.164;2023-01-31T02:24:29;23.55;;;8.93;;
16775;SDS011;8505;49.456;8.164;2023-01-31T02:27:30;23.77;;;9.15;;
16775;SDS011;8505;49.456;8.164;2023-01-31T02:30:30;22.00;;;8.65;;
16775;SDS011;8505;49.456;8.164;2023-01-31T02:33:13;23.77;;;8.85;;
16775;SDS011;8505;49.456;8.164;2023-01-31T02:35:53;22.67;;;9.13;;
16775;SDS011;8505;49.456;8.164;2023-01-31T02:38:34;21.57;;;8.90;;
16775;SDS011;8505;49.456;8.164;2023-01-31T02:41:14;23.50;;;9.10;;
16775;SDS011;8505;49.456;8.164;2023-01-31T02:43:48;25.90;;;10.00;;
16775;SDS011;8505;49.456;8.164;2023-01-31T02:46:35;21.60;;;9.35;;
16775;SDS011;8505;49.456;8.164;2023-01-31T02:49:13;22.35;;;9.40;;
16775;SDS011;8505;49.456;8.164;2023-01-31T02:52:05;25.75;;;9.43;;
16775;SDS011;8505;49.456;8.164;2023-01-31T02:54:48;23.65;;;9.45;;
16775;SDS011;8505;49.456;8.164;2023-01-31T02:57:40;24.73;;;9.40;;
16775;SDS011;8505;49.456;8.164;2023-01-31T03:00:10;23.87;;;9.30;;
16775;SDS011;8505;49.456;8.164;2023-01-31T03:02:39;22.95;;;9.20;;
16775;SDS011;8505;49.456;8.164;2023-01-31T03:05:10;26.98;;;9.90;;
16775;SDS011;8505;49.456;8.164;2023-01-31T03:07:41;25.10;;;9.80;;
16775;SDS011;8505;49.456;8.164;2023-01-31T03:10:15;22.85;;;10.18;;
16775;SDS011;8505;49.456;8.164;2023-01-31T03:12:56;24.30;;;10.18;;
16775;SDS011;8505;49.456;8.164;2023-01-31T03:15:36;27.42;;;10.30;;
16775;SDS011;8505;49.456;8.164;2023-01-31T03:18:27;25.55;;;10.40;;
16775;SDS011;8505;49.456;8.164;2023-01-31T03:21:03;27.93;;;10.27;;
16775;SDS011;8505;49.456;8.164;2023-01-31T03:23:36;26.83;;;9.80;;
16775;SDS011;8505;49.456;8.164;2023-01-31T03:26:07;29.07;;;10.60;;
16775;SDS011;8505;49.456;8.164;2023-01-31T03:28:35;24.47;;;9.07;;
16775;SDS011;8505;49.456;8.164;2023-01-31T03:31:07;26.55;;;10.05;;
16775;SDS011;8505;49.456;8.164;2023-01-31T03:33:42;25.13;;;9.27;;
16775;SDS011;8505;49.456;8.164;2023-01-31T03:36:16;27.83;;;10.27;;
16775;SDS011;8505;49.456;8.164;2023-01-31T03:38:54;27.00;;;10.60;;
16775;SDS011;8505;49.456;8.164;2023-01-31T03:41:30;23.27;;;10.27;;
16775;SDS011;8505;49.456;8.164;2023-01-31T03:44:08;24.38;;;10.00;;
16775;SDS011;8505;49.456;8.164;2023-01-31T03:46:42;23.70;;;9.63;;
16775;SDS011;8505;49.456;8.164;2023-01-31T03:49:13;24.95;;;10.07;;
16775;SDS011;8505;49.456;8.164;2023-01-31T03:51:45;23.33;;;9.82;;
16775;SDS011;8505;49.456;8.164;2023-01-31T03:54:19;25.55;;;10.27;;
16775;SDS011;8505;49.456;8.164;2023-01-31T03:56:51;22.63;;;10.10;;
16775;SDS011;8505;49.456;8.164;2023-01-31T03:59:24;27.85;;;10.43;;
16775;SDS011;8505;49.456;8.164;2023-01-31T04:01:55;25.38;;;10.00;;
16775;SDS011;8505;49.456;8.164;2023-01-31T04:04:27;23.92;;;9.77;;
16775;SDS011;8505;49.456;8.164;2023-01-31T04:06:59;22.77;;;9.57;;
16775;SDS011;8505;49.456;8.164;2023-01-31T04:09:27;27.00;;;10.00;;
16775;SDS011;8505;49.456;8.164;2023-01-31T04:11:55;24.42;;;10.23;;
16775;SDS011;8505;49.456;8.164;2023-01-31T04:14:26;25.33;;;9.70;;
16775;SDS011;8505;49.456;8.164;2023-01-31T04:16:54;28.00;;;9.82;;
16775;SDS011;8505;49.456;8.164;2023-01-31T04:19:21;26.67;;;10.38;;
16775;SDS011;8505;49.456;8.164;2023-01-31T04:21:49;28.58;;;10.18;;
16775;SDS011;8505;49.456;8.164;2023-01-31T04:24:18;24.08;;;9.65;;
16775;SDS011;8505;49.456;8.164;2023-01-31T04:26:45;20.95;;;9.27;;
16775;SDS011;8505;49.456;8.164;2023-01-31T04:29:13;26.60;;;9.90;;
16775;SDS011;8505;49.456;8.164;2023-01-31T04:31:41;25.13;;;9.77;;
16775;SDS011;8505;49.456;8.164;2023-01-31T04:34:09;23.30;;;9.43;;
16775;SDS011;8505;49.456;8.164;2023-01-31T04:36:36;22.67;;;9.70;;
16775;SDS011;8505;49.456;8.164;2023-01-31T04:39:04;22.80;;;9.93;;
16775;SDS011;8505;49.456;8.164;2023-01-31T04:41:33;19.73;;;9.85;;
16775;SDS011;8505;49.456;8.164;2023-01-31T04:44:01;25.20;;;9.98;;
16775;SDS011;8505;49.456;8.164;2023-01-31T04:46:29;21.70;;;10.00;;
16775;SDS011;8505;49.456;8.164;2023-01-31T04:48:57;28.83;;;10.10;;
16775;SDS011;8505;49.456;8.164;2023-01-31T04:51:25;26.00;;;10.98;;
16775;SDS011;8505;49.456;8.164;2023-01-31T04:53:52;25.42;;;11.07;;
16775;SDS011;8505;49.456;8.164;2023-01-31T04:56:20;26.08;;;10.38;;
16775;SDS011;8505;49.456;8.164;2023-01-31T04:58:49;28.42;;;10.93;;
16775;SDS011;8505;49.456;8.164;2023-01-31T05:01:17;27.85;;;10.57;;
16775;SDS011;8505;49.456;8.164;2023-01-31T05:03:44;24.92;;;11.00;;
16775;SDS011;8505;49.456;8.164;2023-01-31T05:06:12;26.90;;;11.40;;
16775;SDS011;8505;49.456;8.164;2023-01-31T05:08:40;26.80;;;10.77;;
16775;SDS011;8505;49.456;8.164;2023-01-31T05:11:08;25.83;;;10.82;;
16775;SDS011;8505;49.456;8.164;2023-01-31T05:13:35;25.10;;;10.30;;
16775;SDS011;8505;49.456;8.164;2023-01-31T05:16:06;24.42;;;10.32;;
16775;SDS011;8505;49.456;8.164;2023-01-31T05:18:35;28.23;;;11.00;;
16775;SDS011;8505;49.456;8.164;2023-01-31T05:21:04;24.33;;;10.48;;
16775;SDS011;8505;49.456;8.164;2023-01-31T05:23:33;25.60;;;10.80;;
16775;SDS011;8505;49.456;8.164;2023-01-31T05:26:01;28.33;;;10.52;;
16775;SDS011;8505;49.456;8.164;2023-01-31T05:28:30;23.58;;;10.02;;
16775;SDS011;8505;49.456;8.164;2023-01-31T05:31:00;25.60;;;10.23;;
16775;SDS011;8505;49.456;8.164;2023-01-31T05:33:30;25.77;;;10.55;;
16775;SDS011;8505;49.456;8.164;2023-01-31T05:35:58;25.83;;;10.07;;
16775;SDS011;8505;49.456;8.164;2023-01-31T05:38:26;27.38;;;10.80;;
16775;SDS011;8505;49.456;8.164;2023-01-31T05:40:54;26.90;;;11.20;;
16775;SDS011;8505;49.456;8.164;2023-01-31T05:43:21;29.60;;;10.98;;
16775;SDS011;8505;49.456;8.164;2023-01-31T05:45:49;24.95;;;10.45;;
16775;SDS011;8505;49.456;8.164;2023-01-31T05:48:17;28.98;;;10.90;;
16775;SDS011;8505;49.456;8.164;2023-01-31T05:50:46;26.15;;;10.38;;
16775;SDS011;8505;49.456;8.164;2023-01-31T05:53:15;24.67;;;10.23;;
16775;SDS011;8505;49.456;8.164;2023-01-31T05:55:44;26.55;;;10.57;;
16775;SDS011;8505;49.456;8.164;2023-01-31T05:58:11;27.42;;;11.02;;
16775;SDS011;8505;49.456;8.164;2023-01-31T06:00:39;26.67;;;11.35;;
16775;SDS011;8505;49.456;8.164;2023-01-31T06:03:07;32.65;;;11.63;;
16775;SDS011;8505;49.456;8.164;2023-01-31T06:05:34;27.50;;;11.38;;
16775;SDS011;8505;49.456;8.164;2023-01-31T06:08:17;28.27;;;11.10;;
16775;SDS011;8505;49.456;8.164;2023-01-31T06:10:45;27.27;;;10.85;;
16775;SDS011;8505;49.456;8.164;2023-01-31T06:13:13;25.98;;;10.88;;
16775;SDS011;8505;49.456;8.164;2023-01-31T06:15:56;29.73;;;10.43;;
16775;SDS011;8505;49.456;8.164;2023-01-31T06:18:24;29.25;;;10.95;;
16775;SDS011;8505;49.456;8.164;2023-01-31T06:20:52;25.70;;;10.70;;
16775;SDS011;8505;49.456;8.164;2023-01-31T06:23:21;32.58;;;12.27;;
16775;SDS011;8505;49.456;8.164;2023-01-31T06:25:49;35.83;;;12.50;;
16775;SDS011;8505;49.456;8.164;2023-01-31T06:28:17;34.28;;;13.50;;
16775;SDS011;8505;49.456;8.164;2023-01-31T06:30:45;32.70;;;12.90;;
16775;SDS011;8505;49.456;8.164;2023-01-31T06:33:13;33.15;;;13.55;;
16775;SDS011;8505;49.456;8.164;2023-01-31T06:35:41;37.33;;;15.60;;
16775;SDS011;8505;49.456;8.164;2023-01-31T06:38:09;34.03;;;14.13;;
16775;SDS011;8505;49.456;8.164;2023-01-31T06:40:39;28.63;;;12.75;;
16775;SDS011;8505;49.456;8.164;2023-01-31T06:43:07;36.45;;;13.43;;
16775;SDS011;8505;49.456;8.164;2023-01-31T06:45:35;42.70;;;17.33;;
16775;SDS011;8505;49.456;8.164;2023-01-31T06:48:03;39.97;;;15.18;;
16775;SDS011;8505;49.456;8.164;2023-01-31T06:50:30;39.00;;;15.90;;
16775;SDS011;8505;49.456;8.164;2023-01-31T06:52:58;29.92;;;12.35;;
16775;SDS011;8505;49.456;8.164;2023-01-31T06:55:26;27.35;;;10.25;;
16775;SDS011;8505;49.456;8.164;2023-01-31T06:57:54;28.87;;;11.43;;
16775;SDS011;8505;49.456;8.164;2023-01-31T07:00:22;19.52;;;9.00;;
16775;SDS011;8505;49.456;8.164;2023-01-31T07:02:51;27.80;;;11.67;;
16775;SDS011;8505;49.456;8.164;2023-01-31T07:05:21;28.35;;;11.63;;
16775;SDS011;8505;49.456;8.164;2023-01-31T07:07:49;31.27;;;12.63;;
16775;SDS011;8505;49.456;8.164;2023-01-31T07:10:17;25.63;;;9.70;;
16775;SDS011;8505;49.456;8.164;2023-01-31T07:12:44;27.42;;;10.52;;
16775;SDS011;8505;49.456;8.164;2023-01-31T07:15:14;25.92;;;11.80;;
16775;SDS011;8505;49.456;8.164;2023-01-31T07:17:41;24.10;;;11.00;;
16775;SDS011;8505;49.456;8.164;2023-01-31T07:20:09;23.10;;;9.85;;
16775;SDS011;8505;49.456;8.164;2023-01-31T07:22:38;27.17;;;11.63;;
16775;SDS011;8505;49.456;8.164;2023-01-31T07:25:06;21.73;;;9.80;;
16775;SDS011;8505;49.456;8.164;2023-01-31T07:27:34;28.17;;;10.65;;
16775;SDS011;8505;49.456;8.164;2023-01-31T07:30:02;27.23;;;11.02;;
16775;SDS011;8505;49.456;8.164;2023-01-31T07:32:31;26.40;;;10.43;;
16775;SDS011;8505;49.456;8.164;2023-01-31T07:34:59;25.20;;;11.43;;
16775;SDS011;8505;49.456;8.164;2023-01-31T07:37:27;25.35;;;10.48;;
16775;SDS011;8505;49.456;8.164;2023-01-31T07:39:55;20.13;;;8.73;;
16775;SDS011;8505;49.456;8.164;2023-01-31T07:42:22;23.10;;;9.50;;
16775;SDS011;8505;49.456;8.164;2023-01-31T07:44:50;21.25;;;8.60;;
16775;SDS011;8505;49.456;8.164;2023-01-31T07:47:18;21.35;;;8.63;;
16775;SDS011;8505;49.456;8.164;2023-01-31T07:49:47;21.15;;;8.20;;
16775;SDS011;8505;49.456;8.164;2023-01-31T07:52:15;24.35;;;7.75;;
16775;SDS011;8505;49.456;8.164;2023-01-31T07:54:43;22.58;;;8.90;;
16775;SDS011;8505;49.456;8.164;2023-01-31T07:57:11;23.27;;;9.30;;
16775;SDS011;8505;49.456;8.164;2023-01-31T07:59:39;22.02;;;9.05;;
16775;SDS011;8505;49.456;8.164;2023-01-31T08:02:08;20.20;;;7.70;;
16775;SDS011;8505;49.456;8.164;2023-01-31T08:04:57;20.23;;;8.73;;
16775;SDS011;8505;49.456;8.164;2023-01-31T08:07:25;22.63;;;9.38;;
16775;SDS011;8505;49.456;8.164;2023-01-31T08:09:53;26.73;;;9.17;;
16775;SDS011;8505;49.456;8.164;2023-01-31T08:12:20;20.15;;;9.20;;
16775;SDS011;8505;49.456;8.164;2023-01-31T08:14:48;21.95;;;9.27;;
16775;SDS011;8505;49.456;8.164;2023-01-31T08:17:16;25.65;;;9.77;;
16775;SDS011;8505;49.456;8.164;2023-01-31T08:19:43;25.03;;;9.50;;
16775;SDS011;8505;49.456;8.164;2023-01-31T08:22:12;26.70;;;10.98;;
16775;SDS011;8505;49.456;8.164;2023-01-31T08:24:40;25.65;;;10.35;;
16775;SDS011;8505;49.456;8.164;2023-01-31T08:27:07;23.60;;;10.15;;
16775;SDS011;8505;49.456;8.164;2023-01-31T08:29:35;25.23;;;9.90;;
16775;SDS011;8505;49.456;8.164;2023-01-31T08:32:03;22.63;;;9.83;;
16775;SDS011;8505;49.456;8.164;2023-01-31T08:34:31;22.70;;;9.35;;
16775;SDS011;8505;49.456;8.164;2023-01-31T08:36:58;23.92;;;9.90;;
16775;SDS011;8505;49.456;8.164;2023-01-31T08:39:28;21.25;;;9.40;;
16775;SDS011;8505;49.456;8.164;2023-01-31T08:41:55;22.20;;;9.73;;
16775;SDS011;8505;49.456;8.164;2023-01-31T08:44:23;24.15;;;10.05;;
16775;SDS011;8505;49.456;8.164;2023-01-31T08:46:50;21.35;;;9.52;;
16775;SDS011;8505;49.456;8.164;2023-01-31T08:49:18;22.57;;;9.47;;
16775;SDS011;8505;49.456;8.164;2023-01-31T08:51:45;23.17;;;9.68;;
16775;SDS011;8505;49.456;8.164;2023-01-31T08:54:13;25.00;;;9.98;;
16775;SDS011;8505;49.456;8.164;2023-01-31T08:56:42;23.98;;;10.05;;
16775;SDS011;8505;49.456;8.164;2023-01-31T08:59:10;24.63;;;10.50;;
16775;SDS011;8505;49.456;8.164;2023-01-31T09:01:38;23.58;;;9.88;;
16775;SDS011;8505;49.456;8.164;2023-01-31T09:04:07;23.70;;;9.82;;
16775;SDS011;8505;49.456;8.164;2023-01-31T09:06:35;24.45;;;9.88;;
16775;SDS011;8505;49.456;8.164;2023-01-31T09:09:02;23.95;;;9.85;;
16775;SDS011;8505;49.456;8.164;2023-01-31T09:11:30;26.42;;;10.88;;
16775;SDS011;8505;49.456;8.164;2023-01-31T09:14:00;24.95;;;10.30;;
16775;SDS011;8505;49.456;8.164;2023-01-31T09:16:27;25.98;;;10.75;;
16775;SDS011;8505;49.456;8.164;2023-01-31T09:18:55;24.77;;;9.75;;
16775;SDS011;8505;49.456;8.164;2023-01-31T09:21:23;27.60;;;10.98;;
16775;SDS011;8505;49.456;8.164;2023-01-31T09:23:53;27.25;;;10.98;;
16775;SDS011;8505;49.456;8.164;2023-01-31T09:26:22;25.73;;;10.32;;
16775;SDS011;8505;49.456;8.164;2023-01-31T09:28:50;23.80;;;10.10;;
16775;SDS011;8505;49.456;8.164;2023-01-31T09:31:19;24.92;;;10.43;;
16775;SDS011;8505;49.456;8.164;2023-01-31T09:33:47;27.88;;;9.85;;
16775;SDS011;8505;49.456;8.164;2023-01-31T09:36:16;24.17;;;8.98;;
16775;SDS011;8505;49.456;8.164;2023-01-31T09:38:45;20.67;;;8.30;;
16775;SDS011;8505;49.456;8.164;2023-01-31T09:41:14;23.40;;;9.10;;
16775;SDS011;8505;49.456;8.164;2023-01-31T09:43:49;21.75;;;8.98;;
16775;SDS011;8505;49.456;8.164;2023-01-31T09:46:22;19.42;;;7.70;;
16775;SDS011;8505;49.456;8.164;2023-01-31T09:48:55;21.40;;;8.02;;
16775;SDS011;8505;49.456;8.164;2023-01-31T09:51:25;22.38;;;8.18;;
16775;SDS011;8505;49.456;8.164;2023-01-31T09:53:54;22.80;;;7.75;;
16775;SDS011;8505;49.456;8.164;2023-01-31T09:56:23;19.98;;;8.30;;
16775;SDS011;8505;49.456;8.164;2023-01-31T09:58:58;20.63;;;7.82;;
16775;SDS011;8505;49.456;8.164;2023-01-31T10:01:36;18.50;;;7.95;;
16775;SDS011;8505;49.456;8.164;2023-01-31T10:04:17;21.95;;;8.38;;
16775;SDS011;8505;49.456;8.164;2023-01-31T10:06:53;20.58;;;8.35;;
16775;SDS011;8505;49.456;8.164;2023-01-31T10:09:27;23.00;;;8.52;;
16775;SDS011;8505;49.456;8.164;2023-01-31T10:12:02;21.25;;;8.45;;
16775;SDS011;8505;49.456;8.164;2023-01-31T10:14:39;22.92;;;8.45;;
16775;SDS011;8505;49.456;8.164;2023-01-31T10:17:14;23.57;;;7.83;;
16775;SDS011;8505;49.456;8.164;2023-01-31T10:19:47;17.75;;;7.70;;
16775;SDS011;8505;49.456;8.164;2023-01-31T10:22:19;20.65;;;7.97;;
16775;SDS011;8505;49.456;8.164;2023-01-31T10:24:53;17.15;;;7.68;;
16775;SDS011;8505;49.456;8.164;2023-01-31T10:27:30;19.33;;;7.90;;
16775;SDS011;8505;49.456;8.164;2023-01-31T10:30:11;22.65;;;8.52;;
16775;SDS011;8505;49.456;8.164;2023-01-31T10:32:44;23.77;;;8.75;;
16775;SDS011;8505;49.456;8.164;2023-01-31T10:35:18;21.83;;;8.15;;
16775;SDS011;8505;49.456;8.164;2023-01-31T10:37:50;20.83;;;8.05;;
16775;SDS011;8505;49.456;8.164;2023-01-31T10:40:22;21.42;;;8.20;;
16775;SDS011;8505;49.456;8.164;2023-01-31T10:42:57;20.43;;;7.70;;
16775;SDS011;8505;49.456;8.164;2023-01-31T10:45:29;19.13;;;7.45;;
16775;SDS011;8505;49.456;8.164;2023-01-31T10:48:03;20.42;;;8.68;;
16775;SDS011;8505;49.456;8.164;2023-01-31T10:50:42;20.03;;;7.53;;
16775;SDS011;8505;49.456;8.164;2023-01-31T10:53:24;21.58;;;8.05;;
16775;SDS011;8505;49.456;8.164;2023-01-31T10:56:17;23.40;;;8.77;;
16775;SDS011;8505;49.456;8.164;2023-01-31T10:58:52;22.00;;;8.93;;
16775;SDS011;8505;49.456;8.164;2023-01-31T11:01:21;22.80;;;8.80;;
16775;SDS011;8505;49.456;8.164;2023-01-31T11:03:51;18.70;;;7.55;;
16775;SDS011;8505;49.456;8.164;2023-01-31T11:06:21;18.38;;;7.97;;
16775;SDS011;8505;49.456;8.164;2023-01-31T11:08:50;21.63;;;8.13;;
16775;SDS011;8505;49.456;8.164;2023-01-31T11:11:22;26.57;;;8.70;;
16775;SDS011;8505;49.456;8.164;2023-01-31T11:13:55;23.70;;;9.20;;
16775;SDS011;8505;49.456;8.164;2023-01-31T11:16:24;23.65;;;8.55;;
16775;SDS011;8505;49.456;8.164;2023-01-31T11:18:57;25.52;;;8.02;;
16775;SDS011;8505;49.456;8.164;2023-01-31T11:21:28;18.77;;;7.63;;
16775;SDS011;8505;49.456;8.164;2023-01-31T11:23:59;19.40;;;7.00;;
16775;SDS011;8505;49.456;8.164;2023-01-31T11:26:30;23.35;;;8.98;;
16775;SDS011;8505;49.456;8.164;2023-01-31T11:29:00;20.50;;;7.15;;
16775;SDS011;8505;49.456;8.164;2023-01-31T11:31:33;18.02;;;6.63;;
16775;SDS011;8505;49.456;8.164;2023-01-31T11:34:16;19.02;;;7.72;;
16775;SDS011;8505;49.456;8.164;2023-01-31T11:39:40;18.73;;;7.05;;
16775;SDS011;8505;49.456;8.164;2023-01-31T11:42:11;18.05;;;6.78;;
16775;SDS011;8505;49.456;8.164;2023-01-31T11:44:56;16.20;;;6.10;;
16775;SDS011;8505;49.456;8.164;2023-01-31T11:47:27;15.85;;;6.18;;
16775;SDS011;8505;49.456;8.164;2023-01-31T11:50:01;18.08;;;6.07;;
16775;SDS011;8505;49.456;8.164;2023-01-31T11:52:29;14.80;;;5.82;;
16775;SDS011;8505;49.456;8.164;2023-01-31T11:54:59;18.73;;;6.35;;
16775;SDS011;8505;49.456;8.164;2023-01-31T11:57:31;13.60;;;5.30;;
16775;SDS011;8505;49.456;8.164;2023-01-31T12:00:03;12.65;;;4.68;;
16775;SDS011;8505;49.456;8.164;2023-01-31T12:02:34;14.30;;;5.00;;
16775;SDS011;8505;49.456;8.164;2023-01-31T12:05:09;13.73;;;4.88;;
16775;SDS011;8505;49.456;8.164;2023-01-31T12:07:40;11.48;;;5.22;;
16775;SDS011;8505;49.456;8.164;2023-01-31T12:10:26;15.70;;;6.07;;
16775;SDS011;8505;49.456;8.164;2023-01-31T12:12:58;12.95;;;4.70;;
16775;SDS011;8505;49.456;8.164;2023-01-31T12:15:48;12.80;;;5.40;;
16775;SDS011;8505;49.456;8.164;2023-01-31T12:18:29;15.88;;;5.82;;
16775;SDS011;8505;49.456;8.164;2023-01-31T12:21:22;15.38;;;6.10;;
16775;SDS011;8505;49.456;8.164;2023-01-31T12:23:59;15.10;;;6.03;;
16775;SDS011;8505;49.456;8.164;2023-01-31T12:26:41;15.70;;;5.63;;
16775;SDS011;8505;49.456;8.164;2023-01-31T12:29:28;17.45;;;6.90;;
16775;SDS011;8505;49.456;8.164;2023-01-31T12:32:23;15.88;;;6.93;;
16775;SDS011;8505;49.456;8.164;2023-01-31T12:38:04;13.93;;;5.30;;
16775;SDS011;8505;49.456;8.164;2023-01-31T12:40:41;15.15;;;6.25;;
16775;SDS011;8505;49.456;8.164;2023-01-31T12:43:22;16.08;;;6.55;;
16775;SDS011;8505;49.456;8.164;2023-01-31T12:46:04;14.32;;;5.75;;
16775;SDS011;8505;49.456;8.164;2023-01-31T12:51:52;14.20;;;6.63;;
16775;SDS011;8505;49.456;8.164;2023-01-31T12:54:33;16.60;;;8.25;;
16775;SDS011;8505;49.456;8.164;2023-01-31T12:57:16;16.00;;;7.40;;
16775;SDS011;8505;49.456;8.164;2023-01-31T12:59:53;17.52;;;7.35;;
16775;SDS011;8505;49.456;8.164;2023-01-31T13:02:31;15.60;;;7.65;;
16775;SDS011;8505;49.456;8.164;2023-01-31T13:05:08;13.80;;;5.38;;
16775;SDS011;8505;49.456;8.164;2023-01-31T13:07:48;15.68;;;6.40;;
16775;SDS011;8505;49.456;8.164;2023-01-31T13:10:27;15.43;;;6.57;;
16775;SDS011;8505;49.456;8.164;2023-01-31T13:13:01;16.17;;;6.50;;
16775;SDS011;8505;49.456;8.164;2023-01-31T13:15:31;16.25;;;6.68;;
16775;SDS011;8505;49.456;8.164;2023-01-31T13:18:08;16.93;;;6.90;;
16775;SDS011;8505;49.456;8.164;2023-01-31T13:20:38;15.38;;;6.20;;
16775;SDS011;8505;49.456;8.164;2023-01-31T13:23:10;14.18;;;5.80;;
16775;SDS011;8505;49.456;8.164;2023-01-31T13:25:45;15.13;;;6.45;;
16775;SDS011;8505;49.456;8.164;2023-01-31T13:28:20;14.13;;;6.00;;
16775;SDS011;8505;49.456;8.164;2023-01-31T13:30:52;13.20;;;6.20;;
16775;SDS011;8505;49.456;8.164;2023-01-31T13:33:31;15.73;;;6.57;;
16775;SDS011;8505;49.456;8.164;2023-01-31T13:36:07;15.20;;;7.18;;
16775;SDS011;8505;49.456;8.164;2023-01-31T13:38:44;15.70;;;6.35;;
16775;SDS011;8505;49.456;8.164;2023-01-31T13:41:17;14.03;;;6.30;;
16775;SDS011;8505;49.456;8.164;2023-01-31T13:43:53;16.77;;;6.90;;
16775;SDS011;8505;49.456;8.164;2023-01-31T13:46:22;15.32;;;6.82;;
16775;SDS011;8505;49.456;8.164;2023-01-31T13:48:56;15.88;;;6.82;;
16775;SDS011;8505;49.456;8.164;2023-01-31T13:51:28;20.00;;;8.15;;
16775;SDS011;8505;49.456;8.164;2023-01-31T13:54:03;17.23;;;6.90;;
16775;SDS011;8505;49.456;8.164;2023-01-31T13:56:44;18.95;;;8.98;;
16775;SDS011;8505;49.456;8.164;2023-01-31T13:59:20;16.20;;;6.60;;
16775;SDS011;8505;49.456;8.164;2023-01-31T14:01:49;21.50;;;9.43;;
16775;SDS011;8505;49.456;8.164;2023-01-31T14:04:20;30.75;;;12.68;;
16775;SDS011;8505;49.456;8.164;2023-01-31T14:06:54;18.83;;;7.68;;
16775;SDS011;8505;49.456;8.164;2023-01-31T14:09:25;15.82;;;6.07;;
16775;SDS011;8505;49.456;8.164;2023-01-31T14:11:56;18.92;;;7.93;;
16775;SDS011;8505;49.456;8.164;2023-01-31T14:14:35;23.63;;;10.50;;
16775;SDS011;8505;49.456;8.164;2023-01-31T14:17:09;28.77;;;13.03;;
16775;SDS011;8505;49.456;8.164;2023-01-31T14:22:28;17.80;;;6.80;;
16775;SDS011;8505;49.456;8.164;2023-01-31T14:25:00;26.77;;;8.70;;
16775;SDS011;8505;49.456;8.164;2023-01-31T14:27:32;18.80;;;8.02;;
16775;SDS011;8505;49.456;8.164;2023-01-31T14:30:09;30.17;;;13.60;;
16775;SDS011;8505;49.456;8.164;2023-01-31T14:32:47;24.25;;;9.88;;
16775;SDS011;8505;49.456;8.164;2023-01-31T14:35:28;41.60;;;16.63;;
16775;SDS011;8505;49.456;8.164;2023-01-31T14:38:08;37.07;;;21.30;;
16775;SDS011;8505;49.456;8.164;2023-01-31T14:40:45;20.85;;;8.65;;
16775;SDS011;8505;49.456;8.164;2023-01-31T14:46:20;19.83;;;8.20;;
16775;SDS011;8505;49.456;8.164;2023-01-31T14:54:54;29.85;;;13.27;;
16775;SDS011;8505;49.456;8.164;2023-01-31T14:57:38;23.15;;;10.07;;
16775;SDS011;8505;49.456;8.164;2023-01-31T15:00:18;20.48;;;8.48;;
16775;SDS011;8505;49.456;8.164;2023-01-31T15:02:49;22.83;;;8.77;;
16775;SDS011;8505;49.456;8.164;2023-01-31T15:05:24;20.83;;;8.15;;
16775;SDS011;8505;49.456;8.164;2023-01-31T15:17:04;21.45;;;8.00;;
16775;SDS011;8505;49.456;8.164;2023-01-31T15:19:57;19.48;;;7.43;;
16775;SDS011;8505;49.456;8.164;2023-01-31T15:22:39;20.45;;;8.02;;
16775;SDS011;8505;49.456;8.164;2023-01-31T15:25:17;44.63;;;16.60;;
16775;SDS011;8505;49.456;8.164;2023-01-31T15:27:51;20.63;;;8.37;;
16775;SDS011;8505;49.456;8.164;2023-01-31T15:30:22;21.95;;;10.18;;
16775;SDS011;8505;49.456;8.164;2023-01-31T15:32:53;26.00;;;9.93;;
16775;SDS011;8505;49.456;8.164;2023-01-31T15:35:26;23.15;;;11.23;;
16775;SDS011;8505;49.456;8.164;2023-01-31T15:37:57;23.55;;;10.68;;
16775;SDS011;8505;49.456;8.164;2023-01-31T15:40:30;21.10;;;8.60;;
16775;SDS011;8505;49.456;8.164;2023-01-31T15:43:14;21.63;;;9.43;;
16775;SDS011;8505;49.456;8.164;2023-01-31T15:45:42;21.65;;;10.80;;